sensor_id;sensor_type;location;lat;lon;timestamp;temperature;humidity
10848;DHT22;5477;48.806;9.154;2022-08-19T00:01:44;21.20;99.90
10848;DHT22;5477;48.806;9.154;2022-08-19T00:04:21;21.20;99.90
10848;DHT22;5477;48.806;9.154;2022-08-19T00:06:50;21.30;99.90
10848;DHT22;5477;48.806;9.154;2022-08-19T00:09:21;21.20;99.90
10848;DHT22;5477;48.806;9.154;2022-08-19T00:11:50;21.20;99.90
10848;DHT22;5477;48.806;9.154;2022-08-19T00:14:19;21.20;99.90
10848;DHT22;5477;48.806;9.154;2022-08-19T00:16:48;21.20;99.90
10848;DHT22;5477;48.806;9.154;2022-08-19T00:19:18;21.10;99.90
10848;DHT22;5477;48.806;9.154;2022-08-19T00:21:46;21.10;99.90
10848;DHT22;5477;48.806;9.154;2022-08-19T00:24:15;21.10;99.90
10848;DHT22;5477;48.806;9.154;2022-08-19T00:26:45;21.10;99.90
10848;DHT22;5477;48.806;9.154;2022-08-19T00:29:15;21.20;99.90
10848;DHT22;5477;48.806;9.154;2022-08-19T00:31:44;21.10;99.90
10848;DHT22;5477;48.806;9.154;2022-08-19T00:34:14;21.20;99.90
10848;DHT22;5477;48.806;9.154;2022-08-19T00:36:42;21.10;99.90
10848;DHT22;5477;48.806;9.154;2022-08-19T00:39:11;21.00;99.90
10848;DHT22;5477;48.806;9.154;2022-08-19T00:41:40;21.10;99.90
10848;DHT22;5477;48.806;9.154;2022-08-19T00:44:12;21.00;99.90
10848;DHT22;5477;48.806;9.154;2022-08-19T00:46:42;21.10;99.90
10848;DHT22;5477;48.806;9.154;2022-08-19T00:49:24;21.20;99.90
10848;DHT22;5477;48.806;9.154;2022-08-19T00:51:56;21.10;99.90
10848;DHT22;5477;48.806;9.154;2022-08-19T00:54:27;21.10;99.90
10848;DHT22;5477;48.806;9.154;2022-08-19T00:56:57;21.10;99.90
10848;DHT22;5477;48.806;9.154;2022-08-19T00:59:27;21.10;99.90
10848;DHT22;5477;48.806;9.154;2022-08-19T01:02:16;21.10;99.90
10848;DHT22;5477;48.806;9.154;2022-08-19T01:04:44;21.10;99.90
10848;DHT22;5477;48.806;9.154;2022-08-19T01:07:12;21.20;99.90
10848;DHT22;5477;48.806;9.154;2022-08-19T01:09:45;21.20;99.90
10848;DHT22;5477;48.806;9.154;2022-08-19T01:12:14;21.20;99.90
10848;DHT22;5477;48.806;9.154;2022-08-19T01:14:44;21.10;99.90
10848;DHT22;5477;48.806;9.154;2022-08-19T01:17:14;21.10;99.90
10848;DHT22;5477;48.806;9.154;2022-08-19T01:19:43;21.00;99.90
10848;DHT22;5477;48.806;9.154;2022-08-19T01:22:18;21.10;99.90
10848;DHT22;5477;48.806;9.154;2022-08-19T01:24:57;21.00;99.90
10848;DHT22;5477;48.806;9.154;2022-08-19T01:27:25;21.00;99.90
10848;DHT22;5477;48.806;9.154;2022-08-19T01:30:01;21.10;99.90
10848;DHT22;5477;48.806;9.154;2022-08-19T01:32:29;21.00;99.90
10848;DHT22;5477;48.806;9.154;2022-08-19T01:35:00;21.00;99.90
10848;DHT22;5477;48.806;9.154;2022-08-19T01:37:29;21.00;99.90
10848;DHT22;5477;48.806;9.154;2022-08-19T01:39:59;20.90;99.90
10848;DHT22;5477;48.806;9.154;2022-08-19T01:42:32;20.90;99.90
10848;DHT22;5477;48.806;9.154;2022-08-19T01:45:00;20.90;99.90
10848;DHT22;5477;48.806;9.154;2022-08-19T01:47:28;20.90;99.90
10848;DHT22;5477;48.806;9.154;2022-08-19T01:49:58;20.90;99.90
10848;DHT22;5477;48.806;9.154;2022-08-19T01:52:26;20.90;99.90
10848;DHT22;5477;48.806;9.154;2022-08-19T01:54:54;20.90;99.90
10848;DHT22;5477;48.806;9.154;2022-08-19T01:57:24;20.90;99.90
10848;DHT22;5477;48.806;9.154;2022-08-19T01:59:52;20.90;99.90
10848;DHT22;5477;48.806;9.154;2022-08-19T02:02:20;20.90;99.90
10848;DHT22;5477;48.806;9.154;2022-08-19T02:04:48;20.90;99.90
10848;DHT22;5477;48.806;9.154;2022-08-19T02:07:19;20.90;99.90
10848;DHT22;5477;48.806;9.154;2022-08-19T02:09:47;20.90;99.90
10848;DHT22;5477;48.806;9.154;2022-08-19T02:12:15;20.90;99.90
10848;DHT22;5477;48.806;9.154;2022-08-19T02:14:44;20.90;99.90
10848;DHT22;5477;48.806;9.154;2022-08-19T02:17:12;20.90;99.90
10848;DHT22;5477;48.806;9.154;2022-08-19T02:19:40;20.80;99.90
10848;DHT22;5477;48.806;9.154;2022-08-19T02:22:08;20.90;99.90
10848;DHT22;5477;48.806;9.154;2022-08-19T02:24:36;20.80;99.90
10848;DHT22;5477;48.806;9.154;2022-08-19T02:27:05;20.70;99.90
10848;DHT22;5477;48.806;9.154;2022-08-19T02:29:33;20.70;99.90
10848;DHT22;5477;48.806;9.154;2022-08-19T02:32:03;20.70;99.90
10848;DHT22;5477;48.806;9.154;2022-08-19T02:34:31;20.80;99.90
10848;DHT22;5477;48.806;9.154;2022-08-19T02:37:00;20.80;99.90
10848;DHT22;5477;48.806;9.154;2022-08-19T02:39:29;20.80;99.90
10848;DHT22;5477;48.806;9.154;2022-08-19T02:41:56;20.70;99.90
10848;DHT22;5477;48.806;9.154;2022-08-19T02:44:26;20.70;99.90
10848;DHT22;5477;48.806;9.154;2022-08-19T02:46:57;20.70;99.90
10848;DHT22;5477;48.806;9.154;2022-08-19T02:49:27;20.70;99.90
10848;DHT22;5477;48.806;9.154;2022-08-19T02:52:00;20.70;99.90
10848;DHT22;5477;48.806;9.154;2022-08-19T02:54:29;20.70;99.90
10848;DHT22;5477;48.806;9.154;2022-08-19T02:56:57;20.70;99.90
10848;DHT22;5477;48.806;9.154;2022-08-19T02:59:25;20.60;99.90
10848;DHT22;5477;48.806;9.154;2022-08-19T03:01:53;20.60;99.90
10848;DHT22;5477;48.806;9.154;2022-08-19T03:04:21;20.50;99.90
10848;DHT22;5477;48.806;9.154;2022-08-19T03:06:51;20.50;99.90
10848;DHT22;5477;48.806;9.154;2022-08-19T03:09:19;20.50;99.90
10848;DHT22;5477;48.806;9.154;2022-08-19T03:11:48;20.50;99.90
10848;DHT22;5477;48.806;9.154;2022-08-19T03:14:19;20.50;99.90
10848;DHT22;5477;48.806;9.154;2022-08-19T03:16:49;20.50;99.90
10848;DHT22;5477;48.806;9.154;2022-08-19T03:19:19;20.50;99.90
10848;DHT22;5477;48.806;9.154;2022-08-19T03:21:47;20.40;99.90
10848;DHT22;5477;48.806;9.154;2022-08-19T03:24:18;20.40;99.90
10848;DHT22;5477;48.806;9.154;2022-08-19T03:26:49;20.30;99.90
10848;DHT22;5477;48.806;9.154;2022-08-19T03:29:19;20.30;99.90
10848;DHT22;5477;48.806;9.154;2022-08-19T03:31:57;20.30;99.90
10848;DHT22;5477;48.806;9.154;2022-08-19T03:34:27;20.30;99.90
10848;DHT22;5477;48.806;9.154;2022-08-19T03:36:57;20.30;99.90
10848;DHT22;5477;48.806;9.154;2022-08-19T03:39:28;20.20;99.90
10848;DHT22;5477;48.806;9.154;2022-08-19T03:41:57;20.20;99.90
10848;DHT22;5477;48.806;9.154;2022-08-19T03:44:48;20.20;99.90
10848;DHT22;5477;48.806;9.154;2022-08-19T03:47:17;20.20;99.90
10848;DHT22;5477;48.806;9.154;2022-08-19T03:49:45;20.10;99.90
10848;DHT22;5477;48.806;9.154;2022-08-19T03:52:13;20.10;99.90
10848;DHT22;5477;48.806;9.154;2022-08-19T03:54:42;20.10;99.90
10848;DHT22;5477;48.806;9.154;2022-08-19T03:57:11;20.20;99.90
10848;DHT22;5477;48.806;9.154;2022-08-19T03:59:39;20.10;99.90
10848;DHT22;5477;48.806;9.154;2022-08-19T04:02:10;20.10;99.90
10848;DHT22;5477;48.806;9.154;2022-08-19T04:04:39;20.20;99.90
10848;DHT22;5477;48.806;9.154;2022-08-19T04:07:09;20.10;99.90
10848;DHT22;5477;48.806;9.154;2022-08-19T04:09:37;20.00;99.90
10848;DHT22;5477;48.806;9.154;2022-08-19T04:12:07;20.00;99.90
10848;DHT22;5477;48.806;9.154;2022-08-19T04:14:35;20.10;99.90
10848;DHT22;5477;48.806;9.154;2022-08-19T04:17:04;20.00;99.90
10848;DHT22;5477;48.806;9.154;2022-08-19T04:19:33;20.10;99.90
10848;DHT22;5477;48.806;9.154;2022-08-19T04:22:02;20.10;99.90
10848;DHT22;5477;48.806;9.154;2022-08-19T04:24:30;20.00;99.90
10848;DHT22;5477;48.806;9.154;2022-08-19T04:26:59;20.00;99.90
10848;DHT22;5477;48.806;9.154;2022-08-19T04:29:29;20.00;99.90
10848;DHT22;5477;48.806;9.154;2022-08-19T04:31:58;20.10;99.90
10848;DHT22;5477;48.806;9.154;2022-08-19T04:34:35;20.10;99.90
10848;DHT22;5477;48.806;9.154;2022-08-19T04:37:23;20.10;99.90
10848;DHT22;5477;48.806;9.154;2022-08-19T04:40:00;20.10;99.90
10848;DHT22;5477;48.806;9.154;2022-08-19T04:42:45;20.10;99.90
10848;DHT22;5477;48.806;9.154;2022-08-19T04:45:15;20.10;99.90
10848;DHT22;5477;48.806;9.154;2022-08-19T04:47:43;20.00;99.90
10848;DHT22;5477;48.806;9.154;2022-08-19T04:50:23;20.00;99.90
10848;DHT22;5477;48.806;9.154;2022-08-19T04:52:52;19.90;99.90
10848;DHT22;5477;48.806;9.154;2022-08-19T04:55:20;19.90;99.90
10848;DHT22;5477;48.806;9.154;2022-08-19T04:57:48;19.90;99.90
10848;DHT22;5477;48.806;9.154;2022-08-19T05:00:19;19.90;99.90
10848;DHT22;5477;48.806;9.154;2022-08-19T05:02:47;19.90;99.90
10848;DHT22;5477;48.806;9.154;2022-08-19T05:05:16;20.00;99.90
10848;DHT22;5477;48.806;9.154;2022-08-19T05:07:45;20.00;99.90
10848;DHT22;5477;48.806;9.154;2022-08-19T05:10:13;20.00;99.90
10848;DHT22;5477;48.806;9.154;2022-08-19T05:12:41;20.00;99.90
10848;DHT22;5477;48.806;9.154;2022-08-19T05:15:09;20.00;99.90
10848;DHT22;5477;48.806;9.154;2022-08-19T05:17:39;20.00;99.90
10848;DHT22;5477;48.806;9.154;2022-08-19T05:20:27;19.90;99.90
10848;DHT22;5477;48.806;9.154;2022-08-19T05:23:13;20.00;99.90
10848;DHT22;5477;48.806;9.154;2022-08-19T05:25:49;20.00;99.90
10848;DHT22;5477;48.806;9.154;2022-08-19T05:28:18;20.00;99.90
10848;DHT22;5477;48.806;9.154;2022-08-19T05:30:47;20.00;99.90
10848;DHT22;5477;48.806;9.154;2022-08-19T05:33:18;20.00;99.90
10848;DHT22;5477;48.806;9.154;2022-08-19T05:35:47;20.00;99.90
10848;DHT22;5477;48.806;9.154;2022-08-19T05:38:16;20.10;99.90
10848;DHT22;5477;48.806;9.154;2022-08-19T05:40:44;20.10;99.90
10848;DHT22;5477;48.806;9.154;2022-08-19T05:43:16;20.10;99.90
10848;DHT22;5477;48.806;9.154;2022-08-19T05:45:44;20.20;99.90
10848;DHT22;5477;48.806;9.154;2022-08-19T05:48:13;20.10;99.90
10848;DHT22;5477;48.806;9.154;2022-08-19T05:50:42;20.10;99.90
10848;DHT22;5477;48.806;9.154;2022-08-19T05:53:11;20.20;99.90
10848;DHT22;5477;48.806;9.154;2022-08-19T05:55:41;20.20;99.90
10848;DHT22;5477;48.806;9.154;2022-08-19T05:58:09;20.20;99.90
10848;DHT22;5477;48.806;9.154;2022-08-19T06:00:37;20.20;99.90
10848;DHT22;5477;48.806;9.154;2022-08-19T06:03:06;20.20;99.90
10848;DHT22;5477;48.806;9.154;2022-08-19T06:05:40;20.20;99.90
10848;DHT22;5477;48.806;9.154;2022-08-19T06:08:19;20.20;99.90
10848;DHT22;5477;48.806;9.154;2022-08-19T06:11:14;20.20;99.90
10848;DHT22;5477;48.806;9.154;2022-08-19T06:13:44;20.20;99.90
10848;DHT22;5477;48.806;9.154;2022-08-19T06:16:14;20.30;99.90
10848;DHT22;5477;48.806;9.154;2022-08-19T06:18:46;20.30;99.90
10848;DHT22;5477;48.806;9.154;2022-08-19T06:21:15;20.30;99.90
10848;DHT22;5477;48.806;9.154;2022-08-19T06:23:44;20.30;99.90
10848;DHT22;5477;48.806;9.154;2022-08-19T06:26:15;20.30;99.90
10848;DHT22;5477;48.806;9.154;2022-08-19T06:28:44;20.30;99.90
10848;DHT22;5477;48.806;9.154;2022-08-19T06:31:14;20.40;99.90
10848;DHT22;5477;48.806;9.154;2022-08-19T06:33:43;20.40;99.90
10848;DHT22;5477;48.806;9.154;2022-08-19T06:36:17;20.40;99.90
10848;DHT22;5477;48.806;9.154;2022-08-19T06:38:47;20.40;99.90
10848;DHT22;5477;48.806;9.154;2022-08-19T06:41:15;20.50;99.90
10848;DHT22;5477;48.806;9.154;2022-08-19T06:43:43;20.50;99.90
10848;DHT22;5477;48.806;9.154;2022-08-19T06:46:13;20.50;99.90
10848;DHT22;5477;48.806;9.154;2022-08-19T06:48:42;20.50;99.90
10848;DHT22;5477;48.806;9.154;2022-08-19T06:51:16;20.60;99.90
10848;DHT22;5477;48.806;9.154;2022-08-19T06:53:47;20.50;99.90
10848;DHT22;5477;48.806;9.154;2022-08-19T06:56:22;20.40;99.90
10848;DHT22;5477;48.806;9.154;2022-08-19T06:58:52;20.40;99.90
10848;DHT22;5477;48.806;9.154;2022-08-19T07:01:20;20.40;99.90
10848;DHT22;5477;48.806;9.154;2022-08-19T07:03:48;20.40;99.90
10848;DHT22;5477;48.806;9.154;2022-08-19T07:06:17;20.40;99.90
10848;DHT22;5477;48.806;9.154;2022-08-19T07:09:09;20.40;99.90
10848;DHT22;5477;48.806;9.154;2022-08-19T07:11:38;20.40;99.90
10848;DHT22;5477;48.806;9.154;2022-08-19T07:14:06;20.30;99.90
10848;DHT22;5477;48.806;9.154;2022-08-19T07:16:46;20.30;99.90
10848;DHT22;5477;48.806;9.154;2022-08-19T07:19:15;20.30;99.90
10848;DHT22;5477;48.806;9.154;2022-08-19T07:21:45;20.40;99.90
10848;DHT22;5477;48.806;9.154;2022-08-19T07:24:15;20.30;99.90
10848;DHT22;5477;48.806;9.154;2022-08-19T07:26:43;20.40;99.90
10848;DHT22;5477;48.806;9.154;2022-08-19T07:29:12;20.30;99.90
10848;DHT22;5477;48.806;9.154;2022-08-19T07:31:40;20.30;99.90
10848;DHT22;5477;48.806;9.154;2022-08-19T07:34:10;20.30;99.90
10848;DHT22;5477;48.806;9.154;2022-08-19T07:36:41;20.50;99.90
10848;DHT22;5477;48.806;9.154;2022-08-19T07:39:15;20.40;99.90
10848;DHT22;5477;48.806;9.154;2022-08-19T07:41:44;20.40;99.90
10848;DHT22;5477;48.806;9.154;2022-08-19T07:44:14;20.50;99.90
10848;DHT22;5477;48.806;9.154;2022-08-19T07:46:47;20.50;99.90
10848;DHT22;5477;48.806;9.154;2022-08-19T07:49:19;20.40;99.90
10848;DHT22;5477;48.806;9.154;2022-08-19T07:51:50;20.40;99.90
10848;DHT22;5477;48.806;9.154;2022-08-19T07:54:21;20.50;99.90
10848;DHT22;5477;48.806;9.154;2022-08-19T07:56:50;20.50;99.90
10848;DHT22;5477;48.806;9.154;2022-08-19T07:59:20;20.50;99.90
10848;DHT22;5477;48.806;9.154;2022-08-19T08:01:49;20.50;99.90
10848;DHT22;5477;48.806;9.154;2022-08-19T08:04:18;20.50;99.90
10848;DHT22;5477;48.806;9.154;2022-08-19T08:07:05;20.50;99.90
10848;DHT22;5477;48.806;9.154;2022-08-19T08:09:59;20.40;99.90
10848;DHT22;5477;48.806;9.154;2022-08-19T08:12:32;20.50;99.90
10848;DHT22;5477;48.806;9.154;2022-08-19T08:15:04;20.50;99.90
10848;DHT22;5477;48.806;9.154;2022-08-19T08:17:38;20.50;99.90
10848;DHT22;5477;48.806;9.154;2022-08-19T08:20:16;20.50;99.90
10848;DHT22;5477;48.806;9.154;2022-08-19T08:22:45;20.50;99.90
10848;DHT22;5477;48.806;9.154;2022-08-19T08:25:33;20.50;99.90
10848;DHT22;5477;48.806;9.154;2022-08-19T08:28:04;20.50;99.90
10848;DHT22;5477;48.806;9.154;2022-08-19T08:30:32;20.50;99.90
10848;DHT22;5477;48.806;9.154;2022-08-19T08:33:03;20.60;99.90
10848;DHT22;5477;48.806;9.154;2022-08-19T08:35:31;20.50;99.90
10848;DHT22;5477;48.806;9.154;2022-08-19T08:38:00;20.60;99.90
10848;DHT22;5477;48.806;9.154;2022-08-19T08:40:43;20.60;99.90
10848;DHT22;5477;48.806;9.154;2022-08-19T08:43:22;20.60;99.90
10848;DHT22;5477;48.806;9.154;2022-08-19T08:46:00;20.70;99.90
10848;DHT22;5477;48.806;9.154;2022-08-19T08:48:37;20.60;99.90
10848;DHT22;5477;48.806;9.154;2022-08-19T08:51:10;20.60;99.90
10848;DHT22;5477;48.806;9.154;2022-08-19T08:53:40;20.60;99.90
10848;DHT22;5477;48.806;9.154;2022-08-19T08:56:11;20.60;99.90
10848;DHT22;5477;48.806;9.154;2022-08-19T08:58:51;20.60;99.90
10848;DHT22;5477;48.806;9.154;2022-08-19T09:01:22;20.70;99.90
10848;DHT22;5477;48.806;9.154;2022-08-19T09:03:56;20.70;99.90
10848;DHT22;5477;48.806;9.154;2022-08-19T09:06:37;20.70;99.90
10848;DHT22;5477;48.806;9.154;2022-08-19T09:09:14;20.70;99.90
10848;DHT22;5477;48.806;9.154;2022-08-19T09:11:54;20.80;99.90
10848;DHT22;5477;48.806;9.154;2022-08-19T09:14:33;20.80;99.90
10848;DHT22;5477;48.806;9.154;2022-08-19T09:17:20;20.80;99.90
10848;DHT22;5477;48.806;9.154;2022-08-19T09:19:57;21.00;99.90
10848;DHT22;5477;48.806;9.154;2022-08-19T09:22:27;21.00;99.90
10848;DHT22;5477;48.806;9.154;2022-08-19T09:24:55;21.00;99.90
10848;DHT22;5477;48.806;9.154;2022-08-19T09:27:27;21.10;99.90
10848;DHT22;5477;48.806;9.154;2022-08-19T09:30:13;21.10;99.90
10848;DHT22;5477;48.806;9.154;2022-08-19T09:32:43;21.20;99.90
10848;DHT22;5477;48.806;9.154;2022-08-19T09:35:13;21.30;99.90
10848;DHT22;5477;48.806;9.154;2022-08-19T09:37:42;21.40;99.90
10848;DHT22;5477;48.806;9.154;2022-08-19T09:40:12;21.40;99.90
10848;DHT22;5477;48.806;9.154;2022-08-19T09:42:42;21.50;99.90
10848;DHT22;5477;48.806;9.154;2022-08-19T09:45:18;21.60;99.90
10848;DHT22;5477;48.806;9.154;2022-08-19T09:47:49;21.70;99.90
10848;DHT22;5477;48.806;9.154;2022-08-19T09:50:22;21.80;99.90
10848;DHT22;5477;48.806;9.154;2022-08-19T09:52:51;21.80;99.90
10848;DHT22;5477;48.806;9.154;2022-08-19T09:55:24;21.90;99.90
10848;DHT22;5477;48.806;9.154;2022-08-19T09:58:02;21.90;99.90
10848;DHT22;5477;48.806;9.154;2022-08-19T10:00:30;21.90;99.90
10848;DHT22;5477;48.806;9.154;2022-08-19T10:02:58;21.90;99.90
10848;DHT22;5477;48.806;9.154;2022-08-19T10:05:27;21.90;99.90
10848;DHT22;5477;48.806;9.154;2022-08-19T10:08:16;21.90;99.90
10848;DHT22;5477;48.806;9.154;2022-08-19T10:10:47;21.90;99.90
10848;DHT22;5477;48.806;9.154;2022-08-19T10:13:19;21.80;99.90
10848;DHT22;5477;48.806;9.154;2022-08-19T10:15:50;21.90;99.90
10848;DHT22;5477;48.806;9.154;2022-08-19T10:18:22;21.90;99.90
10848;DHT22;5477;48.806;9.154;2022-08-19T10:20:52;21.90;99.90
10848;DHT22;5477;48.806;9.154;2022-08-19T10:23:21;21.90;99.90
10848;DHT22;5477;48.806;9.154;2022-08-19T10:25:49;22.10;99.90
10848;DHT22;5477;48.806;9.154;2022-08-19T10:28:21;22.10;99.90
10848;DHT22;5477;48.806;9.154;2022-08-19T10:30:49;22.10;99.90
10848;DHT22;5477;48.806;9.154;2022-08-19T10:33:18;22.20;99.90
10848;DHT22;5477;48.806;9.154;2022-08-19T10:36:08;22.20;99.90
10848;DHT22;5477;48.806;9.154;2022-08-19T10:38:37;22.20;99.90
10848;DHT22;5477;48.806;9.154;2022-08-19T10:41:21;22.30;99.90
10848;DHT22;5477;48.806;9.154;2022-08-19T10:43:52;22.40;99.90
10848;DHT22;5477;48.806;9.154;2022-08-19T10:46:23;22.40;99.90
10848;DHT22;5477;48.806;9.154;2022-08-19T10:48:52;22.50;99.90
10848;DHT22;5477;48.806;9.154;2022-08-19T10:51:21;22.50;99.90
10848;DHT22;5477;48.806;9.154;2022-08-19T10:54:14;22.50;99.90
10848;DHT22;5477;48.806;9.154;2022-08-19T10:56:56;22.50;99.90
10848;DHT22;5477;48.806;9.154;2022-08-19T10:59:27;22.50;99.90
10848;DHT22;5477;48.806;9.154;2022-08-19T11:02:03;22.50;99.90
10848;DHT22;5477;48.806;9.154;2022-08-19T11:04:31;22.50;99.90
10848;DHT22;5477;48.806;9.154;2022-08-19T11:07:01;22.50;99.90
10848;DHT22;5477;48.806;9.154;2022-08-19T11:09:30;22.50;99.90
10848;DHT22;5477;48.806;9.154;2022-08-19T11:12:00;22.60;99.90
10848;DHT22;5477;48.806;9.154;2022-08-19T11:14:32;22.70;99.90
10848;DHT22;5477;48.806;9.154;2022-08-19T11:17:02;22.90;99.90
10848;DHT22;5477;48.806;9.154;2022-08-19T11:19:30;23.00;99.90
10848;DHT22;5477;48.806;9.154;2022-08-19T11:21:58;23.10;99.90
10848;DHT22;5477;48.806;9.154;2022-08-19T11:24:30;23.20;99.90
10848;DHT22;5477;48.806;9.154;2022-08-19T11:27:04;23.30;99.90
10848;DHT22;5477;48.806;9.154;2022-08-19T11:29:38;23.40;99.90
10848;DHT22;5477;48.806;9.154;2022-08-19T11:32:08;23.50;99.90
10848;DHT22;5477;48.806;9.154;2022-08-19T11:34:36;23.60;99.90
10848;DHT22;5477;48.806;9.154;2022-08-19T11:37:06;23.70;99.90
10848;DHT22;5477;48.806;9.154;2022-08-19T11:39:37;23.80;99.90
10848;DHT22;5477;48.806;9.154;2022-08-19T11:42:06;23.90;99.90
10848;DHT22;5477;48.806;9.154;2022-08-19T11:44:56;23.80;99.90
10848;DHT22;5477;48.806;9.154;2022-08-19T11:47:24;23.80;99.90
10848;DHT22;5477;48.806;9.154;2022-08-19T11:49:53;23.90;99.90
10848;DHT22;5477;48.806;9.154;2022-08-19T11:52:21;23.90;99.90
10848;DHT22;5477;48.806;9.154;2022-08-19T11:54:49;23.80;99.90
10848;DHT22;5477;48.806;9.154;2022-08-19T11:57:18;24.00;99.90
10848;DHT22;5477;48.806;9.154;2022-08-19T11:59:50;24.00;99.90
10848;DHT22;5477;48.806;9.154;2022-08-19T12:02:20;24.00;99.90
10848;DHT22;5477;48.806;9.154;2022-08-19T12:04:49;23.90;99.90
10848;DHT22;5477;48.806;9.154;2022-08-19T12:07:17;23.80;99.90
10848;DHT22;5477;48.806;9.154;2022-08-19T12:09:46;23.80;99.90
10848;DHT22;5477;48.806;9.154;2022-08-19T12:12:14;23.90;99.90
10848;DHT22;5477;48.806;9.154;2022-08-19T12:14:42;23.90;99.90
10848;DHT22;5477;48.806;9.154;2022-08-19T12:17:11;24.10;99.90
10848;DHT22;5477;48.806;9.154;2022-08-19T12:19:41;24.20;99.90
10848;DHT22;5477;48.806;9.154;2022-08-19T12:22:09;24.20;99.90
10848;DHT22;5477;48.806;9.154;2022-08-19T12:24:37;24.20;99.90
10848;DHT22;5477;48.806;9.154;2022-08-19T12:27:05;24.20;99.90
10848;DHT22;5477;48.806;9.154;2022-08-19T12:29:38;24.20;99.90
10848;DHT22;5477;48.806;9.154;2022-08-19T12:32:08;24.20;99.90
10848;DHT22;5477;48.806;9.154;2022-08-19T12:34:38;24.20;99.90
10848;DHT22;5477;48.806;9.154;2022-08-19T12:37:08;24.20;99.90
10848;DHT22;5477;48.806;9.154;2022-08-19T12:39:40;24.20;99.90
10848;DHT22;5477;48.806;9.154;2022-08-19T12:42:09;24.10;99.90
10848;DHT22;5477;48.806;9.154;2022-08-19T12:44:39;24.10;99.90
10848;DHT22;5477;48.806;9.154;2022-08-19T12:47:09;24.20;99.90
10848;DHT22;5477;48.806;9.154;2022-08-19T12:49:38;24.20;99.90
10848;DHT22;5477;48.806;9.154;2022-08-19T12:52:23;24.30;99.90
10848;DHT22;5477;48.806;9.154;2022-08-19T12:54:52;24.30;99.90
10848;DHT22;5477;48.806;9.154;2022-08-19T12:57:21;24.40;99.90
10848;DHT22;5477;48.806;9.154;2022-08-19T12:59:59;24.50;99.90
10848;DHT22;5477;48.806;9.154;2022-08-19T13:02:27;24.60;99.90
10848;DHT22;5477;48.806;9.154;2022-08-19T13:04:55;24.50;99.90
10848;DHT22;5477;48.806;9.154;2022-08-19T13:07:24;24.60;99.90
10848;DHT22;5477;48.806;9.154;2022-08-19T13:09:52;24.40;99.90
10848;DHT22;5477;48.806;9.154;2022-08-19T13:12:20;24.40;99.90
10848;DHT22;5477;48.806;9.154;2022-08-19T13:14:51;24.30;99.90
10848;DHT22;5477;48.806;9.154;2022-08-19T13:17:19;24.20;99.90
10848;DHT22;5477;48.806;9.154;2022-08-19T13:19:47;24.10;99.90
10848;DHT22;5477;48.806;9.154;2022-08-19T13:22:15;24.10;99.90
10848;DHT22;5477;48.806;9.154;2022-08-19T13:24:45;24.00;99.90
10848;DHT22;5477;48.806;9.154;2022-08-19T13:27:13;23.90;99.90
10848;DHT22;5477;48.806;9.154;2022-08-19T13:29:42;23.80;99.90
10848;DHT22;5477;48.806;9.154;2022-08-19T13:32:28;23.70;99.90
10848;DHT22;5477;48.806;9.154;2022-08-19T13:35:15;23.70;99.90
10848;DHT22;5477;48.806;9.154;2022-08-19T13:37:43;23.50;99.90
10848;DHT22;5477;48.806;9.154;2022-08-19T13:40:15;23.40;99.90
10848;DHT22;5477;48.806;9.154;2022-08-19T13:42:47;23.20;99.90
10848;DHT22;5477;48.806;9.154;2022-08-19T13:45:18;23.10;99.90
10848;DHT22;5477;48.806;9.154;2022-08-19T13:47:47;22.90;99.90
10848;DHT22;5477;48.806;9.154;2022-08-19T13:50:17;22.80;99.90
10848;DHT22;5477;48.806;9.154;2022-08-19T13:52:46;22.80;99.90
10848;DHT22;5477;48.806;9.154;2022-08-19T13:55:16;22.70;99.90
10848;DHT22;5477;48.806;9.154;2022-08-19T13:57:51;22.50;99.90
10848;DHT22;5477;48.806;9.154;2022-08-19T14:00:21;22.30;99.90
10848;DHT22;5477;48.806;9.154;2022-08-19T14:02:53;22.20;99.90
10848;DHT22;5477;48.806;9.154;2022-08-19T14:05:23;22.10;99.90
10848;DHT22;5477;48.806;9.154;2022-08-19T14:07:51;22.00;99.90
10848;DHT22;5477;48.806;9.154;2022-08-19T14:10:21;22.00;99.90
10848;DHT22;5477;48.806;9.154;2022-08-19T14:12:52;22.10;99.90
10848;DHT22;5477;48.806;9.154;2022-08-19T14:15:22;22.20;99.90
10848;DHT22;5477;48.806;9.154;2022-08-19T14:17:51;22.40;99.90
10848;DHT22;5477;48.806;9.154;2022-08-19T14:20:20;22.60;99.90
10848;DHT22;5477;48.806;9.154;2022-08-19T14:22:52;22.60;99.90
10848;DHT22;5477;48.806;9.154;2022-08-19T14:25:24;22.50;99.90
10848;DHT22;5477;48.806;9.154;2022-08-19T14:27:53;22.40;99.90
10848;DHT22;5477;48.806;9.154;2022-08-19T14:30:24;22.40;99.90
10848;DHT22;5477;48.806;9.154;2022-08-19T14:32:54;22.50;99.90
10848;DHT22;5477;48.806;9.154;2022-08-19T14:35:22;22.40;99.90
10848;DHT22;5477;48.806;9.154;2022-08-19T14:37:51;22.40;99.90
10848;DHT22;5477;48.806;9.154;2022-08-19T14:40:25;22.30;99.90
10848;DHT22;5477;48.806;9.154;2022-08-19T14:42:54;22.30;99.90
10848;DHT22;5477;48.806;9.154;2022-08-19T14:45:27;22.30;99.90
10848;DHT22;5477;48.806;9.154;2022-08-19T14:47:56;22.30;99.90
10848;DHT22;5477;48.806;9.154;2022-08-19T14:50:26;22.30;99.90
10848;DHT22;5477;48.806;9.154;2022-08-19T14:52:59;22.30;99.90
10848;DHT22;5477;48.806;9.154;2022-08-19T14:55:34;22.40;99.90
10848;DHT22;5477;48.806;9.154;2022-08-19T14:58:02;22.40;99.90
10848;DHT22;5477;48.806;9.154;2022-08-19T15:00:34;22.40;99.90
10848;DHT22;5477;48.806;9.154;2022-08-19T15:03:03;22.50;99.90
10848;DHT22;5477;48.806;9.154;2022-08-19T15:05:31;22.60;99.90
10848;DHT22;5477;48.806;9.154;2022-08-19T15:08:02;22.60;99.90
10848;DHT22;5477;48.806;9.154;2022-08-19T15:10:30;22.60;99.90
10848;DHT22;5477;48.806;9.154;2022-08-19T15:13:00;22.70;99.90
10848;DHT22;5477;48.806;9.154;2022-08-19T15:15:28;22.70;99.90
10848;DHT22;5477;48.806;9.154;2022-08-19T15:17:56;22.80;99.90
10848;DHT22;5477;48.806;9.154;2022-08-19T15:20:29;22.90;99.90
10848;DHT22;5477;48.806;9.154;2022-08-19T15:22:57;23.10;99.90
10848;DHT22;5477;48.806;9.154;2022-08-19T15:25:26;23.30;99.90
10848;DHT22;5477;48.806;9.154;2022-08-19T15:27:55;23.40;99.90
10848;DHT22;5477;48.806;9.154;2022-08-19T15:30:26;23.60;99.90
10848;DHT22;5477;48.806;9.154;2022-08-19T15:32:56;23.70;99.90
10848;DHT22;5477;48.806;9.154;2022-08-19T15:35:27;23.60;99.90
10848;DHT22;5477;48.806;9.154;2022-08-19T15:37:55;23.70;99.90
10848;DHT22;5477;48.806;9.154;2022-08-19T15:40:25;23.80;99.90
10848;DHT22;5477;48.806;9.154;2022-08-19T15:42:53;23.90;99.90
10848;DHT22;5477;48.806;9.154;2022-08-19T15:45:24;24.10;99.90
10848;DHT22;5477;48.806;9.154;2022-08-19T15:47:58;24.20;99.90
10848;DHT22;5477;48.806;9.154;2022-08-19T15:50:27;24.30;99.90
10848;DHT22;5477;48.806;9.154;2022-08-19T15:52:57;24.40;99.90
10848;DHT22;5477;48.806;9.154;2022-08-19T15:55:29;24.70;99.90
10848;DHT22;5477;48.806;9.154;2022-08-19T15:58:00;24.90;99.90
10848;DHT22;5477;48.806;9.154;2022-08-19T16:00:57;24.90;99.90
10848;DHT22;5477;48.806;9.154;2022-08-19T16:03:46;25.00;99.90
10848;DHT22;5477;48.806;9.154;2022-08-19T16:06:43;25.00;99.90
10848;DHT22;5477;48.806;9.154;2022-08-19T16:09:12;25.30;99.90
10848;DHT22;5477;48.806;9.154;2022-08-19T16:11:41;25.40;99.90